sensor_id;sensor_type;location;lat;lon;timestamp;pressure;altitude;pressure_sealevel;temperature;humidity
3444;BME280;1736;52.068;6.968;2023-03-20T00:01:11;101347.09;;;9.28;100.00
3444;BME280;1736;52.068;6.968;2023-03-20T00:03:38;101350.81;;;9.25;100.00
3444;BME280;1736;52.068;6.968;2023-03-20T00:06:12;101346.00;;;9.18;100.00
3444;BME280;1736;52.068;6.968;2023-03-20T00:08:39;101347.69;;;9.19;100.00
3444;BME280;1736;52.068;6.968;2023-03-20T00:11:09;101358.44;;;9.17;100.00
3444;BME280;1736;52.068;6.968;2023-03-20T00:13:42;101354.28;;;9.13;100.00
3444;BME280;1736;52.068;6.968;2023-03-20T00:16:10;101346.34;;;9.13;100.00
3444;BME280;1736;52.068;6.968;2023-03-20T00:18:37;101346.44;;;9.24;100.00
3444;BME280;1736;52.068;6.968;2023-03-20T00:21:08;101350.59;;;9.16;100.00
3444;BME280;1736;52.068;6.968;2023-03-20T00:23:39;101351.50;;;9.15;100.00
3444;BME280;1736;52.068;6.968;2023-03-20T00:26:08;101354.06;;;9.16;100.00
3444;BME280;1736;52.068;6.968;2023-03-20T00:28:39;101346.78;;;9.20;100.00
3444;BME280;1736;52.068;6.968;2023-03-20T00:31:19;101350.69;;;9.14;100.00
3444;BME280;1736;52.068;6.968;2023-03-20T00:33:48;101337.25;;;9.17;100.00
3444;BME280;1736;52.068;6.968;2023-03-20T00:36:15;101337.44;;;9.14;100.00
3444;BME280;1736;52.068;6.968;2023-03-20T00:38:42;101331.63;;;9.09;100.00
3444;BME280;1736;52.068;6.968;2023-03-20T00:41:20;101333.53;;;9.20;100.00
3444;BME280;1736;52.068;6.968;2023-03-20T00:43:48;101341.06;;;9.13;100.00
3444;BME280;1736;52.068;6.968;2023-03-20T00:46:18;101341.25;;;9.10;100.00
3444;BME280;1736;52.068;6.968;2023-03-20T00:48:46;101345.28;;;9.16;100.00
3444;BME280;1736;52.068;6.968;2023-03-20T00:51:12;101337.84;;;9.08;100.00
3444;BME280;1736;52.068;6.968;2023-03-20T00:53:40;101337.63;;;9.11;100.00
3444;BME280;1736;52.068;6.968;2023-03-20T00:56:23;101331.28;;;9.14;100.00
3444;BME280;1736;52.068;6.968;2023-03-20T00:58:52;101332.34;;;9.11;100.00
3444;BME280;1736;52.068;6.968;2023-03-20T01:01:20;101333.84;;;9.15;100.00
3444;BME280;1736;52.068;6.968;2023-03-20T01:03:47;101343.91;;;9.10;100.00
3444;BME280;1736;52.068;6.968;2023-03-20T01:06:13;101343.78;;;9.12;100.00
3444;BME280;1736;52.068;6.968;2023-03-20T01:08:40;101341.06;;;9.13;100.00
3444;BME280;1736;52.068;6.968;2023-03-20T01:11:08;101349.28;;;9.09;100.00
3444;BME280;1736;52.068;6.968;2023-03-20T01:13:39;101344.63;;;9.12;100.00
3444;BME280;1736;52.068;6.968;2023-03-20T01:16:16;101361.03;;;9.05;100.00
3444;BME280;1736;52.068;6.968;2023-03-20T01:18:46;101350.75;;;9.00;100.00
3444;BME280;1736;52.068;6.968;2023-03-20T01:21:13;101365.28;;;9.07;100.00
3444;BME280;1736;52.068;6.968;2023-03-20T01:23:39;101363.59;;;9.06;100.00
3444;BME280;1736;52.068;6.968;2023-03-20T01:26:19;101368.97;;;9.05;100.00
3444;BME280;1736;52.068;6.968;2023-03-20T01:28:46;101366.44;;;9.03;100.00
3444;BME280;1736;52.068;6.968;2023-03-20T01:31:14;101359.25;;;9.05;100.00
3444;BME280;1736;52.068;6.968;2023-03-20T01:33:41;101348.94;;;9.01;100.00
3444;BME280;1736;52.068;6.968;2023-03-20T01:36:11;101357.53;;;9.04;100.00
3444;BME280;1736;52.068;6.968;2023-03-20T01:38:38;101361.22;;;9.02;100.00
3444;BME280;1736;52.068;6.968;2023-03-20T01:41:06;101358.47;;;9.03;100.00
3444;BME280;1736;52.068;6.968;2023-03-20T01:43:35;101354.78;;;9.06;100.00
3444;BME280;1736;52.068;6.968;2023-03-20T01:46:08;101350.44;;;9.05;100.00
3444;BME280;1736;52.068;6.968;2023-03-20T01:48:59;101358.47;;;9.03;100.00
3444;BME280;1736;52.068;6.968;2023-03-20T01:51:29;101356.78;;;9.02;100.00
3444;BME280;1736;52.068;6.968;2023-03-20T01:54:00;101368.97;;;9.05;100.00
3444;BME280;1736;52.068;6.968;2023-03-20T01:56:31;101376.81;;;9.06;100.00
3444;BME280;1736;52.068;6.968;2023-03-20T01:59:01;101380.44;;;9.05;100.00
3444;BME280;1736;52.068;6.968;2023-03-20T02:01:30;101383.91;;;9.06;100.00
3444;BME280;1736;52.068;6.968;2023-03-20T02:03:57;101395.84;;;8.99;100.00
3444;BME280;1736;52.068;6.968;2023-03-20T02:06:24;101402.94;;;8.98;100.00
3444;BME280;1736;52.068;6.968;2023-03-20T02:08:52;101392.72;;;9.06;100.00
3444;BME280;1736;52.068;6.968;2023-03-20T02:11:22;101391.75;;;9.07;100.00
3444;BME280;1736;52.068;6.968;2023-03-20T02:13:50;101382.66;;;9.11;100.00
3444;BME280;1736;52.068;6.968;2023-03-20T02:16:18;101390.78;;;9.08;100.00
3444;BME280;1736;52.068;6.968;2023-03-20T02:18:47;101383.16;;;9.04;100.00
3444;BME280;1736;52.068;6.968;2023-03-20T02:24:45;101398.19;;;9.03;100.00
3444;BME280;1736;52.068;6.968;2023-03-20T02:27:19;101388.22;;;8.94;100.00
3444;BME280;1736;52.068;6.968;2023-03-20T02:30:24;101388.22;;;8.94;100.00
3444;BME280;1736;52.068;6.968;2023-03-20T02:36:48;101386.28;;;8.84;100.00
3444;BME280;1736;52.068;6.968;2023-03-20T02:39:47;101392.22;;;8.87;100.00
3444;BME280;1736;52.068;6.968;2023-03-20T02:42:19;101390.72;;;8.83;100.00
3444;BME280;1736;52.068;6.968;2023-03-20T02:44:55;101387.53;;;8.78;100.00
3444;BME280;1736;52.068;6.968;2023-03-20T02:47:31;101382.97;;;8.80;100.00
3444;BME280;1736;52.068;6.968;2023-03-20T02:50:08;101377.78;;;8.79;100.00
3444;BME280;1736;52.068;6.968;2023-03-20T02:52:43;101370.16;;;8.74;100.00
3444;BME280;1736;52.068;6.968;2023-03-20T02:55:17;101372.59;;;8.77;100.00
3444;BME280;1736;52.068;6.968;2023-03-20T02:57:51;101364.66;;;8.77;100.00
3444;BME280;1736;52.068;6.968;2023-03-20T03:00:26;101370.41;;;8.84;100.00
3444;BME280;1736;52.068;6.968;2023-03-20T03:02:58;101374.47;;;8.75;100.00
3444;BME280;1736;52.068;6.968;2023-03-20T03:05:32;101342.44;;;8.80;100.00
3444;BME280;1736;52.068;6.968;2023-03-20T03:08:01;101341.69;;;8.78;100.00
3444;BME280;1736;52.068;6.968;2023-03-20T03:10:35;101335.84;;;8.73;100.00
3444;BME280;1736;52.068;6.968;2023-03-20T03:13:04;101324.00;;;8.78;100.00
3444;BME280;1736;52.068;6.968;2023-03-20T03:15:37;101320.72;;;8.75;100.00
3444;BME280;1736;52.068;6.968;2023-03-20T03:18:06;101320.16;;;8.70;100.00
3444;BME280;1736;52.068;6.968;2023-03-20T03:20:37;101333.28;;;8.71;100.00
3444;BME280;1736;52.068;6.968;2023-03-20T03:23:05;101329.69;;;8.72;100.00
3444;BME280;1736;52.068;6.968;2023-03-20T03:25:37;101325.06;;;8.76;100.00
3444;BME280;1736;52.068;6.968;2023-03-20T03:28:07;101326.31;;;8.70;100.00
3444;BME280;1736;52.068;6.968;2023-03-20T03:30:38;101341.34;;;8.70;100.00
3444;BME280;1736;52.068;6.968;2023-03-20T03:33:13;101348.97;;;8.74;100.00
3444;BME280;1736;52.068;6.968;2023-03-20T03:35:41;101341.03;;;8.74;100.00
3444;BME280;1736;52.068;6.968;2023-03-20T03:38:21;101340.50;;;8.69;100.00
3444;BME280;1736;52.068;6.968;2023-03-20T03:41:04;101338.41;;;8.74;100.00
3444;BME280;1736;52.068;6.968;2023-03-20T03:43:34;101346.19;;;8.63;100.00
3444;BME280;1736;52.068;6.968;2023-03-20T03:46:08;101341.56;;;8.67;100.00
3444;BME280;1736;52.068;6.968;2023-03-20T03:48:41;101337.31;;;8.64;100.00
3444;BME280;1736;52.068;6.968;2023-03-20T03:51:12;101339.00;;;8.65;100.00
3444;BME280;1736;52.068;6.968;2023-03-20T03:53:42;101336.91;;;8.70;100.00
3444;BME280;1736;52.068;6.968;2023-03-20T03:56:15;101343.88;;;8.71;100.00
3444;BME280;1736;52.068;6.968;2023-03-20T03:58:47;101343.97;;;8.70;100.00
3444;BME280;1736;52.068;6.968;2023-03-20T04:01:16;101343.00;;;8.58;100.00
3444;BME280;1736;52.068;6.968;2023-03-20T04:03:47;101337.78;;;8.57;100.00
3444;BME280;1736;52.068;6.968;2023-03-20T04:06:15;101333.25;;;8.59;100.00
3444;BME280;1736;52.068;6.968;2023-03-20T04:08:42;101324.88;;;8.52;100.00
3444;BME280;1736;52.068;6.968;2023-03-20T04:11:15;101311.00;;;8.49;99.94
3444;BME280;1736;52.068;6.968;2023-03-20T04:13:42;101312.69;;;8.50;100.00
3444;BME280;1736;52.068;6.968;2023-03-20T04:16:11;101315.44;;;8.48;100.00
3444;BME280;1736;52.068;6.968;2023-03-20T04:18:39;101306.16;;;8.55;100.00
3444;BME280;1736;52.068;6.968;2023-03-20T04:21:06;101301.63;;;8.57;100.00
3444;BME280;1736;52.068;6.968;2023-03-20T04:23:33;101312.94;;;8.59;100.00
3444;BME280;1736;52.068;6.968;2023-03-20T04:25:59;101297.28;;;8.56;98.50
3444;BME280;1736;52.068;6.968;2023-03-20T04:28:27;101302.75;;;8.53;97.84
3444;BME280;1736;52.068;6.968;2023-03-20T04:30:55;101305.06;;;8.45;96.81
3444;BME280;1736;52.068;6.968;2023-03-20T04:33:23;101295.97;;;8.49;97.47
3444;BME280;1736;52.068;6.968;2023-03-20T04:35:50;101304.00;;;8.48;97.97
3444;BME280;1736;52.068;6.968;2023-03-20T04:38:18;101306.56;;;8.49;98.63
3444;BME280;1736;52.068;6.968;2023-03-20T04:40:45;101304.00;;;8.48;98.41
3444;BME280;1736;52.068;6.968;2023-03-20T04:43:12;101303.38;;;8.44;98.72
3444;BME280;1736;52.068;6.968;2023-03-20T04:45:41;101301.28;;;8.49;98.89
3444;BME280;1736;52.068;6.968;2023-03-20T04:48:08;101305.88;;;8.46;99.33
3444;BME280;1736;52.068;6.968;2023-03-20T04:50:34;101315.31;;;8.50;99.86
3444;BME280;1736;52.068;6.968;2023-03-20T04:53:01;101317.97;;;8.50;99.53
3444;BME280;1736;52.068;6.968;2023-03-20T04:55:27;101312.91;;;8.47;99.80
3444;BME280;1736;52.068;6.968;2023-03-20T04:57:54;101306.28;;;8.66;98.92
3444;BME280;1736;52.068;6.968;2023-03-20T05:00:21;101296.88;;;8.62;99.09
3444;BME280;1736;52.068;6.968;2023-03-20T05:02:49;101294.41;;;8.59;98.41
3444;BME280;1736;52.068;6.968;2023-03-20T05:05:15;101303.16;;;8.47;98.43
3444;BME280;1736;52.068;6.968;2023-03-20T05:07:42;101304.72;;;8.37;99.02
3444;BME280;1736;52.068;6.968;2023-03-20T05:10:09;101311.69;;;8.38;98.92
3444;BME280;1736;52.068;6.968;2023-03-20T05:12:36;101310.28;;;8.33;98.47
3444;BME280;1736;52.068;6.968;2023-03-20T05:15:03;101317.38;;;8.32;99.01
3444;BME280;1736;52.068;6.968;2023-03-20T05:17:30;101305.69;;;8.22;98.40
3444;BME280;1736;52.068;6.968;2023-03-20T05:19:58;101310.38;;;8.31;99.01
3444;BME280;1736;52.068;6.968;2023-03-20T05:22:24;101300.94;;;8.27;99.03
3444;BME280;1736;52.068;6.968;2023-03-20T05:24:51;101300.94;;;8.27;99.07
3444;BME280;1736;52.068;6.968;2023-03-20T05:27:17;101304.56;;;8.12;99.82
3444;BME280;1736;52.068;6.968;2023-03-20T05:29:44;101309.28;;;8.07;100.00
3444;BME280;1736;52.068;6.968;2023-03-20T05:32:11;101308.44;;;8.07;100.00
3444;BME280;1736;52.068;6.968;2023-03-20T05:34:37;101308.94;;;7.99;100.00
3444;BME280;1736;52.068;6.968;2023-03-20T05:37:06;101312.72;;;7.95;100.00
3444;BME280;1736;52.068;6.968;2023-03-20T05:39:32;101308.25;;;7.96;100.00
3444;BME280;1736;52.068;6.968;2023-03-20T05:41:59;101307.78;;;7.89;100.00
3444;BME280;1736;52.068;6.968;2023-03-20T05:44:25;101310.63;;;7.86;100.00
3444;BME280;1736;52.068;6.968;2023-03-20T05:46:52;101308.75;;;7.88;100.00
3444;BME280;1736;52.068;6.968;2023-03-20T05:49:18;101309.44;;;7.78;100.00
3444;BME280;1736;52.068;6.968;2023-03-20T05:51:45;101307.81;;;7.75;100.00
3444;BME280;1736;52.068;6.968;2023-03-20T05:54:12;101311.19;;;7.77;100.00
3444;BME280;1736;52.068;6.968;2023-03-20T05:56:39;101318.19;;;7.78;99.72
3444;BME280;1736;52.068;6.968;2023-03-20T05:59:06;101329.13;;;7.86;99.53
3444;BME280;1736;52.068;6.968;2023-03-20T06:01:32;101326.69;;;7.83;98.66
3444;BME280;1736;52.068;6.968;2023-03-20T06:03:59;101329.13;;;7.86;97.75
3444;BME280;1736;52.068;6.968;2023-03-20T06:06:25;101345.06;;;7.85;97.64
3444;BME280;1736;52.068;6.968;2023-03-20T06:08:52;101342.03;;;7.77;98.03
3444;BME280;1736;52.068;6.968;2023-03-20T06:11:20;101332.53;;;7.74;98.16
3444;BME280;1736;52.068;6.968;2023-03-20T06:13:46;101333.19;;;7.78;98.39
3444;BME280;1736;52.068;6.968;2023-03-20T06:16:13;101334.88;;;7.79;98.42
3444;BME280;1736;52.068;6.968;2023-03-20T06:18:40;101328.75;;;7.78;98.33
3444;BME280;1736;52.068;6.968;2023-03-20T06:21:06;101328.75;;;7.64;97.82
3444;BME280;1736;52.068;6.968;2023-03-20T06:23:33;101336.69;;;7.64;98.07
3444;BME280;1736;52.068;6.968;2023-03-20T06:26:00;101331.41;;;7.64;98.49
3444;BME280;1736;52.068;6.968;2023-03-20T06:28:28;101333.56;;;7.72;97.53
3444;BME280;1736;52.068;6.968;2023-03-20T06:30:55;101338.50;;;7.78;96.70
3444;BME280;1736;52.068;6.968;2023-03-20T06:33:21;101341.22;;;7.76;97.08
3444;BME280;1736;52.068;6.968;2023-03-20T06:35:48;101342.34;;;7.86;96.52
3444;BME280;1736;52.068;6.968;2023-03-20T06:38:14;101339.50;;;7.89;96.82
3444;BME280;1736;52.068;6.968;2023-03-20T06:40:41;101353.59;;;7.90;95.86
3444;BME280;1736;52.068;6.968;2023-03-20T06:43:09;101347.44;;;7.89;95.41
3444;BME280;1736;52.068;6.968;2023-03-20T06:45:38;101352.53;;;7.92;95.15
3444;BME280;1736;52.068;6.968;2023-03-20T06:48:05;101364.31;;;8.01;94.36
3444;BME280;1736;52.068;6.968;2023-03-20T06:50:31;101369.50;;;8.02;94.42
3444;BME280;1736;52.068;6.968;2023-03-20T06:52:58;101366.13;;;8.00;93.95
3444;BME280;1736;52.068;6.968;2023-03-20T06:55:24;101361.41;;;8.05;93.00
3444;BME280;1736;52.068;6.968;2023-03-20T06:57:51;101372.97;;;8.17;92.58
3444;BME280;1736;52.068;6.968;2023-03-20T07:00:18;101366.66;;;8.19;91.73
3444;BME280;1736;52.068;6.968;2023-03-20T07:02:47;101368.00;;;8.26;92.04
3444;BME280;1736;52.068;6.968;2023-03-20T07:05:14;101364.03;;;8.33;90.66
3444;BME280;1736;52.068;6.968;2023-03-20T07:07:41;101366.50;;;8.22;90.22
3444;BME280;1736;52.068;6.968;2023-03-20T07:10:09;101362.91;;;8.23;90.32
3444;BME280;1736;52.068;6.968;2023-03-20T07:12:36;101363.09;;;8.20;90.39
3444;BME280;1736;52.068;6.968;2023-03-20T07:15:03;101376.31;;;8.34;89.44
3444;BME280;1736;52.068;6.968;2023-03-20T07:17:30;101361.75;;;8.41;88.20
3444;BME280;1736;52.068;6.968;2023-03-20T07:19:58;101363.06;;;8.48;88.48
3444;BME280;1736;52.068;6.968;2023-03-20T07:22:27;101364.41;;;8.41;87.11
3444;BME280;1736;52.068;6.968;2023-03-20T07:24:53;101377.22;;;8.47;88.03
3444;BME280;1736;52.068;6.968;2023-03-20T07:27:21;101377.03;;;8.50;87.38
3444;BME280;1736;52.068;6.968;2023-03-20T07:29:48;101369.19;;;8.49;86.54
3444;BME280;1736;52.068;6.968;2023-03-20T07:32:14;101378.38;;;8.70;86.07
3444;BME280;1736;52.068;6.968;2023-03-20T07:34:41;101377.72;;;8.66;85.73
3444;BME280;1736;52.068;6.968;2023-03-20T07:37:10;101378.81;;;8.50;85.42
3444;BME280;1736;52.068;6.968;2023-03-20T07:39:36;101374.03;;;8.69;85.93
3444;BME280;1736;52.068;6.968;2023-03-20T07:42:03;101380.31;;;8.80;85.01
3444;BME280;1736;52.068;6.968;2023-03-20T07:44:29;101377.63;;;8.94;84.19
3444;BME280;1736;52.068;6.968;2023-03-20T07:46:56;101382.72;;;8.97;84.43
3444;BME280;1736;52.068;6.968;2023-03-20T07:49:23;101373.22;;;9.07;83.06
3444;BME280;1736;52.068;6.968;2023-03-20T07:51:50;101383.28;;;9.15;82.31
3444;BME280;1736;52.068;6.968;2023-03-20T07:54:20;101383.41;;;9.13;81.94
3444;BME280;1736;52.068;6.968;2023-03-20T07:56:46;101376.41;;;9.12;81.79
3444;BME280;1736;52.068;6.968;2023-03-20T07:59:13;101372.25;;;9.08;81.28
3444;BME280;1736;52.068;6.968;2023-03-20T08:01:39;101371.72;;;9.03;81.35
3444;BME280;1736;52.068;6.968;2023-03-20T08:04:06;101364.41;;;8.94;80.90
3444;BME280;1736;52.068;6.968;2023-03-20T08:06:33;101372.84;;;8.87;81.81
3444;BME280;1736;52.068;6.968;2023-03-20T08:08:59;101368.25;;;9.15;81.29
3444;BME280;1736;52.068;6.968;2023-03-20T08:11:28;101367.53;;;9.13;81.11
3444;BME280;1736;52.068;6.968;2023-03-20T08:13:54;101365.66;;;9.28;80.42
3444;BME280;1736;52.068;6.968;2023-03-20T08:16:21;101368.41;;;9.26;80.26
3444;BME280;1736;52.068;6.968;2023-03-20T08:18:47;101367.78;;;9.48;79.29
3444;BME280;1736;52.068;6.968;2023-03-20T08:21:14;101374.13;;;9.45;79.64
3444;BME280;1736;52.068;6.968;2023-03-20T08:23:42;101380.41;;;9.57;78.75
3444;BME280;1736;52.068;6.968;2023-03-20T08:26:08;101369.59;;;9.60;78.54
3444;BME280;1736;52.068;6.968;2023-03-20T08:28:36;101378.69;;;9.68;78.74
3444;BME280;1736;52.068;6.968;2023-03-20T08:31:06;101375.84;;;9.71;77.93
3444;BME280;1736;52.068;6.968;2023-03-20T08:33:33;101368.63;;;9.48;77.11
3444;BME280;1736;52.068;6.968;2023-03-20T08:36:00;101371.91;;;9.64;76.89
3444;BME280;1736;52.068;6.968;2023-03-20T08:38:26;101368.72;;;9.47;76.01
3444;BME280;1736;52.068;6.968;2023-03-20T08:40:53;101367.78;;;9.60;76.89
3444;BME280;1736;52.068;6.968;2023-03-20T08:43:20;101368.84;;;9.70;76.64
3444;BME280;1736;52.068;6.968;2023-03-20T08:45:48;101375.19;;;9.68;76.86
3444;BME280;1736;52.068;6.968;2023-03-20T08:48:14;101367.16;;;9.82;76.02
3444;BME280;1736;52.068;6.968;2023-03-20T08:50:41;101369.47;;;9.99;75.58
3444;BME280;1736;52.068;6.968;2023-03-20T08:53:09;101374.56;;;9.89;74.20
3444;BME280;1736;52.068;6.968;2023-03-20T08:55:35;101370.53;;;9.96;74.20
3444;BME280;1736;52.068;6.968;2023-03-20T08:58:02;101379.66;;;9.92;73.38
3444;BME280;1736;52.068;6.968;2023-03-20T09:00:29;101379.69;;;10.05;72.93
3444;BME280;1736;52.068;6.968;2023-03-20T09:02:57;101368.41;;;10.01;72.69
3444;BME280;1736;52.068;6.968;2023-03-20T09:05:24;101371.38;;;10.22;72.22
3444;BME280;1736;52.068;6.968;2023-03-20T09:07:50;101374.53;;;10.39;71.49
3444;BME280;1736;52.068;6.968;2023-03-20T09:10:17;101381.31;;;10.43;70.83
3444;BME280;1736;52.068;6.968;2023-03-20T09:12:43;101374.34;;;10.53;70.49
3444;BME280;1736;52.068;6.968;2023-03-20T09:15:10;101387.25;;;10.71;70.26
3444;BME280;1736;52.068;6.968;2023-03-20T09:17:37;101385.59;;;10.57;69.32
3444;BME280;1736;52.068;6.968;2023-03-20T09:20:06;101384.19;;;10.64;70.04
3444;BME280;1736;52.068;6.968;2023-03-20T09:22:33;101379.50;;;10.68;70.54
3444;BME280;1736;52.068;6.968;2023-03-20T09:25:00;101381.31;;;10.67;69.58
3444;BME280;1736;52.068;6.968;2023-03-20T09:27:26;101385.84;;;10.41;69.19
3444;BME280;1736;52.068;6.968;2023-03-20T09:29:53;101381.94;;;10.34;69.33
3444;BME280;1736;52.068;6.968;2023-03-20T09:32:19;101382.03;;;10.33;69.86
3444;BME280;1736;52.068;6.968;2023-03-20T09:34:46;101392.78;;;10.31;69.87
3444;BME280;1736;52.068;6.968;2023-03-20T09:37:14;101388.09;;;10.35;70.16
3444;BME280;1736;52.068;6.968;2023-03-20T09:39:40;101385.94;;;10.52;69.37
3444;BME280;1736;52.068;6.968;2023-03-20T09:42:16;101388.59;;;10.52;69.09
3444;BME280;1736;52.068;6.968;2023-03-20T09:44:53;101388.88;;;10.61;68.92
3444;BME280;1736;52.068;6.968;2023-03-20T09:47:28;101385.88;;;10.65;69.03
3444;BME280;1736;52.068;6.968;2023-03-20T09:50:10;101391.28;;;10.63;68.82
3444;BME280;1736;52.068;6.968;2023-03-20T09:52:44;101385.66;;;10.44;68.79
3444;BME280;1736;52.068;6.968;2023-03-20T09:55:19;101380.75;;;10.38;68.26
3444;BME280;1736;52.068;6.968;2023-03-20T09:57:49;101388.81;;;10.49;68.57
3444;BME280;1736;52.068;6.968;2023-03-20T10:00:19;101382.88;;;10.46;68.41
3444;BME280;1736;52.068;6.968;2023-03-20T10:02:50;101379.28;;;10.71;68.89
3444;BME280;1736;52.068;6.968;2023-03-20T10:05:21;101381.31;;;10.91;67.35
3444;BME280;1736;52.068;6.968;2023-03-20T10:07:51;101377.38;;;10.73;67.27
3444;BME280;1736;52.068;6.968;2023-03-20T10:10:23;101377.41;;;10.84;67.55
3444;BME280;1736;52.068;6.968;2023-03-20T10:13:00;101379.25;;;10.83;66.70
3444;BME280;1736;52.068;6.968;2023-03-20T10:15:38;101373.41;;;11.02;66.42
3444;BME280;1736;52.068;6.968;2023-03-20T10:18:14;101379.97;;;11.09;65.79
3444;BME280;1736;52.068;6.968;2023-03-20T10:20:47;101366.16;;;11.04;65.03
3444;BME280;1736;52.068;6.968;2023-03-20T10:23:25;101373.53;;;11.00;65.49
3444;BME280;1736;52.068;6.968;2023-03-20T10:25:55;101369.19;;;11.34;65.38
3444;BME280;1736;52.068;6.968;2023-03-20T10:28:27;101370.13;;;11.33;64.01
3444;BME280;1736;52.068;6.968;2023-03-20T10:31:03;101367.00;;;11.39;63.79
3444;BME280;1736;52.068;6.968;2023-03-20T10:33:47;101360.00;;;11.38;63.84
3444;BME280;1736;52.068;6.968;2023-03-20T10:36:30;101355.91;;;11.45;62.97
3444;BME280;1736;52.068;6.968;2023-03-20T10:39:05;101372.06;;;11.31;63.04
3444;BME280;1736;52.068;6.968;2023-03-20T10:41:37;101369.41;;;11.31;63.49
3444;BME280;1736;52.068;6.968;2023-03-20T10:44:09;101360.84;;;11.38;63.40
3444;BME280;1736;52.068;6.968;2023-03-20T10:46:42;101354.97;;;11.57;63.92
3444;BME280;1736;52.068;6.968;2023-03-20T10:49:14;101344.03;;;11.72;63.24
3444;BME280;1736;52.068;6.968;2023-03-20T10:51:46;101349.47;;;11.71;63.58
3444;BME280;1736;52.068;6.968;2023-03-20T10:54:23;101350.44;;;11.81;62.42
3444;BME280;1736;52.068;6.968;2023-03-20T10:56:51;101341.00;;;11.88;63.07
3444;BME280;1736;52.068;6.968;2023-03-20T10:59:23;101342.81;;;11.65;62.88
3444;BME280;1736;52.068;6.968;2023-03-20T11:01:50;101343.13;;;11.50;62.92
3444;BME280;1736;52.068;6.968;2023-03-20T11:04:16;101344.31;;;11.57;62.17
3444;BME280;1736;52.068;6.968;2023-03-20T11:06:48;101338.34;;;11.66;63.03
3444;BME280;1736;52.068;6.968;2023-03-20T11:09:20;101336.19;;;11.82;62.79
3444;BME280;1736;52.068;6.968;2023-03-20T11:11:48;101342.03;;;11.52;62.18
3444;BME280;1736;52.068;6.968;2023-03-20T11:14:18;101330.31;;;11.55;61.75
3444;BME280;1736;52.068;6.968;2023-03-20T11:16:47;101334.78;;;11.54;63.02
3444;BME280;1736;52.068;6.968;2023-03-20T11:19:14;101346.28;;;11.55;63.50
3444;BME280;1736;52.068;6.968;2023-03-20T11:21:47;101344.06;;;11.38;63.29
3444;BME280;1736;52.068;6.968;2023-03-20T11:24:25;101333.66;;;11.35;63.13
3444;BME280;1736;52.068;6.968;2023-03-20T11:26:54;101337.75;;;11.28;64.26
3444;BME280;1736;52.068;6.968;2023-03-20T11:29:30;101339.75;;;11.13;64.87
3444;BME280;1736;52.068;6.968;2023-03-20T11:32:04;101346.84;;;11.02;65.40
3444;BME280;1736;52.068;6.968;2023-03-20T11:34:36;101346.91;;;10.89;66.16
3444;BME280;1736;52.068;6.968;2023-03-20T11:37:06;101345.75;;;10.70;66.50
3444;BME280;1736;52.068;6.968;2023-03-20T11:39:55;101346.63;;;10.57;68.13
3444;BME280;1736;52.068;6.968;2023-03-20T11:42:25;101357.38;;;10.56;70.20
3444;BME280;1736;52.068;6.968;2023-03-20T11:44:57;101357.41;;;10.43;70.94
3444;BME280;1736;52.068;6.968;2023-03-20T11:47:25;101361.00;;;10.42;71.80
3444;BME280;1736;52.068;6.968;2023-03-20T11:49:54;101360.88;;;10.57;73.99
3444;BME280;1736;52.068;6.968;2023-03-20T11:52:23;101368.91;;;10.31;74.22
3444;BME280;1736;52.068;6.968;2023-03-20T11:54:55;101377.19;;;10.39;74.66
3444;BME280;1736;52.068;6.968;2023-03-20T11:57:30;101374.94;;;10.33;75.47
3444;BME280;1736;52.068;6.968;2023-03-20T12:00:01;101376.28;;;10.15;76.54
3444;BME280;1736;52.068;6.968;2023-03-20T12:02:28;101375.63;;;9.99;77.82
3444;BME280;1736;52.068;6.968;2023-03-20T12:04:58;101376.59;;;9.86;78.01
3444;BME280;1736;52.068;6.968;2023-03-20T12:07:29;101375.22;;;9.80;78.80
3444;BME280;1736;52.068;6.968;2023-03-20T12:09:59;101377.00;;;9.92;80.39
3444;BME280;1736;52.068;6.968;2023-03-20T12:12:35;101371.38;;;9.97;80.71
3444;BME280;1736;52.068;6.968;2023-03-20T12:15:12;101361.63;;;9.97;80.24
3444;BME280;1736;52.068;6.968;2023-03-20T12:17:46;101361.00;;;9.81;80.50
3444;BME280;1736;52.068;6.968;2023-03-20T12:20:33;101356.34;;;9.72;79.96
3444;BME280;1736;52.068;6.968;2023-03-20T12:23:10;101351.16;;;9.83;80.43
3444;BME280;1736;52.068;6.968;2023-03-20T12:25:46;101353.66;;;9.97;81.45
3444;BME280;1736;52.068;6.968;2023-03-20T12:28:20;101356.00;;;10.14;81.16
3444;BME280;1736;52.068;6.968;2023-03-20T12:30:56;101343.56;;;10.02;81.05
3444;BME280;1736;52.068;6.968;2023-03-20T12:33:36;101351.03;;;9.85;80.05
3444;BME280;1736;52.068;6.968;2023-03-20T12:36:12;101336.78;;;9.98;79.50
3444;BME280;1736;52.068;6.968;2023-03-20T12:38:40;101338.59;;;10.10;80.03
3444;BME280;1736;52.068;6.968;2023-03-20T12:41:11;101340.38;;;10.22;80.86
3444;BME280;1736;52.068;6.968;2023-03-20T12:43:50;101342.50;;;10.17;79.39
3444;BME280;1736;52.068;6.968;2023-03-20T12:46:25;101335.72;;;10.26;78.64
3444;BME280;1736;52.068;6.968;2023-03-20T12:49:00;101336.50;;;10.15;77.70
3444;BME280;1736;52.068;6.968;2023-03-20T12:51:37;101338.09;;;10.41;78.90
3444;BME280;1736;52.068;6.968;2023-03-20T12:54:31;101344.16;;;10.43;77.95
3444;BME280;1736;52.068;6.968;2023-03-20T12:57:08;101336.69;;;10.48;77.86
3444;BME280;1736;52.068;6.968;2023-03-20T12:59:49;101339.19;;;10.26;78.19
3444;BME280;1736;52.068;6.968;2023-03-20T13:02:26;101340.72;;;10.18;77.17
3444;BME280;1736;52.068;6.968;2023-03-20T13:05:02;101333.19;;;10.12;78.66
3444;BME280;1736;52.068;6.968;2023-03-20T13:07:45;101322.09;;;10.30;78.45
3444;BME280;1736;52.068;6.968;2023-03-20T13:10:20;101315.63;;;10.34;77.50
3444;BME280;1736;52.068;6.968;2023-03-20T13:12:56;101306.44;;;10.27;77.39
3444;BME280;1736;52.068;6.968;2023-03-20T13:15:34;101315.72;;;10.33;77.45
3444;BME280;1736;52.068;6.968;2023-03-20T13:18:11;101309.88;;;10.40;75.39
3444;BME280;1736;52.068;6.968;2023-03-20T13:20:46;101310.47;;;10.68;76.75
3444;BME280;1736;52.068;6.968;2023-03-20T13:23:26;101310.06;;;11.08;76.58
3444;BME280;1736;52.068;6.968;2023-03-20T13:26:12;101305.81;;;11.06;77.80
3444;BME280;1736;52.068;6.968;2023-03-20T13:28:50;101306.41;;;10.75;77.73
3444;BME280;1736;52.068;6.968;2023-03-20T13:31:26;101302.91;;;10.98;78.10
3444;BME280;1736;52.068;6.968;2023-03-20T13:33:58;101304.91;;;10.94;79.20
3444;BME280;1736;52.068;6.968;2023-03-20T13:36:43;101295.47;;;11.14;81.32
3444;BME280;1736;52.068;6.968;2023-03-20T13:39:18;101281.81;;;11.07;78.91